»·PEaware :: SWA1898 KLAS-KONT

SWA1898 :: KLAS-KONT

FLIGHT INFORMATION

Flight Status: Arrived
Operator:
Southwest Airlines
More flights by this operator :: More flights under this callsign
Pilot: Alexey E. (25402)
Aircraft: BOEING 737-700
(B737)
More flights by this aircraft type
Origin: KLAS McCarran Intl
United States
Destination: KONT Ontario Intl
United States
More flights between these airports :: More routes between these airports
Route: BOACH8 WHIGG FEYLA EAGLZ2
File this flight plan on PilotEdge
Remarks: RMK / SIMBRIEF
Altitude:
(Current/Filed)
26,000ft
Speed:
(Current/Filed)
416kts
Departed: 15-Jul-19 09:21 AM
Arrived: 15-Jul-19 09:58 AM
Distance/Time
Traveled:
171nm/0:37
Distance/Time
To Go:
Arrived

Flight Plot

Page will automatically refresh every two minutes.


Map Options




Map Legend


Flown Route
Filed Route
Departure Airport
Arrival Airport
Navaid (VOR, NDB)
Fix

Horizontal Profiles

Position Reports

Time Latitude Longitude Heading Altitude Ground
Speed
15-Jul-19 08:57 34.059843 -117.596435 1 944ft 0kts
15-Jul-19 08:58 34.059843 -117.596435 1 944ft 0kts
15-Jul-19 08:59 34.059843 -117.596435 1 944ft 0kts
15-Jul-19 09:04 36.082021 -115.148270 59 2099ft 0kts
15-Jul-19 09:05 36.082021 -115.148270 59 2099ft 0kts
15-Jul-19 09:06 36.082021 -115.148270 59 2099ft 0kts
15-Jul-19 09:07 36.082021 -115.148270 60 2099ft 0kts
15-Jul-19 09:08 36.082021 -115.148270 59 2099ft 0kts
15-Jul-19 09:09 36.082021 -115.148270 59 2099ft 0kts
15-Jul-19 09:10 36.082018 -115.148274 58 2099ft 1kts
15-Jul-19 09:11 36.082034 -115.148952 126 2102ft 2kts
15-Jul-19 09:12 36.082254 -115.149163 155 2102ft 0kts
15-Jul-19 09:13 36.082254 -115.149163 155 2102ft 0kts
15-Jul-19 09:14 36.082093 -115.149073 155 2102ft 6kts
15-Jul-19 09:15 36.078557 -115.146941 120 2102ft 13kts
15-Jul-19 09:16 36.078268 -115.138571 90 2075ft 31kts
15-Jul-19 09:17 36.078261 -115.128163 91 2046ft 31kts
15-Jul-19 09:18 36.077667 -115.121775 130 2038ft 12kts
15-Jul-19 09:19 36.076502 -115.121401 232 2039ft 3kts
15-Jul-19 09:20 36.076388 -115.148521 271 2402ft 181kts
15-Jul-19 09:21 36.072187 -115.217067 251 5000ft 241kts
15-Jul-19 09:22 36.019876 -115.280564 201 6996ft 284kts
15-Jul-19 09:23 35.944053 -115.305662 187 9052ft 288kts
15-Jul-19 09:24 35.860432 -115.314606 183 12270ft 314kts
15-Jul-19 09:25 35.770331 -115.305344 176 15294ft 338kts
15-Jul-19 09:26 35.676179 -115.320015 206 18079ft 355kts
15-Jul-19 09:27 35.600519 -115.398754 228 20929ft 365kts
15-Jul-19 09:28 35.531410 -115.492091 229 23541ft 376kts
15-Jul-19 09:29 35.459896 -115.588326 229 25841ft 388kts
15-Jul-19 09:31 35.383814 -115.690421 228 25993ft 412kts
15-Jul-19 09:32 35.306584 -115.794089 229 25847ft 412kts
15-Jul-19 09:33 35.229524 -115.897682 229 25348ft 409kts
15-Jul-19 09:34 35.152599 -115.999697 228 24846ft 407kts
15-Jul-19 09:35 35.077221 -116.099400 228 24136ft 385kts
15-Jul-19 09:36 35.009407 -116.189221 228 24054ft 353kts
15-Jul-19 09:37 34.937895 -116.271625 224 23517ft 351kts
15-Jul-19 09:38 34.867359 -116.351536 225 22066ft 338kts
15-Jul-19 09:39 34.799844 -116.434100 230 21217ft 337kts
15-Jul-19 09:40 34.745336 -116.522985 234 20651ft 343kts
15-Jul-19 09:41 34.690346 -116.615709 234 18819ft 332kts
15-Jul-19 09:42 34.637102 -116.705083 233 17123ft 320kts
15-Jul-19 09:43 34.588299 -116.793013 240 15690ft 312kts
15-Jul-19 09:44 34.547702 -116.884127 238 14136ft 301kts
15-Jul-19 09:45 34.494266 -116.962525 228 13599ft 301kts
15-Jul-19 09:46 34.440655 -117.037578 228 12158ft 288kts
15-Jul-19 09:47 34.389158 -117.109711 229 10808ft 275kts
15-Jul-19 09:48 34.328547 -117.161293 199 9960ft 262kts
15-Jul-19 09:49 34.257931 -117.188717 200 8875ft 271kts
15-Jul-19 09:50 34.186298 -117.216460 191 7996ft 273kts
15-Jul-19 09:50 34.124262 -117.199646 161 7834ft 282kts
15-Jul-19 09:52 34.054958 -117.241903 259 6141ft 264kts
15-Jul-19 09:53 34.054769 -117.329842 270 4656ft 263kts
15-Jul-19 09:53 34.054952 -117.402979 270 3623ft 246kts
15-Jul-19 09:55 34.054959 -117.483070 270 2567ft 167kts
15-Jul-19 09:55 34.055012 -117.525469 270 1898ft 148kts
15-Jul-19 09:56 34.054952 -117.575076 270 1087ft 147kts
15-Jul-19 09:57 34.055262 -117.604324 288 928ft 24kts
15-Jul-19 09:58 34.057247 -117.607497 320 940ft 5kts
15-Jul-19 09:59 34.057585 -117.607698 348 942ft 0kts
15-Jul-19 10:00 34.058051 -117.607174 89 943ft 12kts
15-Jul-19 10:01 34.058022 -117.600913 90 938ft 18kts
15-Jul-19 10:02 34.058998 -117.599318 81 941ft 8kts
15-Jul-19 10:03 34.059356 -117.597486 14 942ft 4kts
15-Jul-19 10:04 34.059786 -117.597450 0 944ft 0kts
15-Jul-19 10:05 34.059785 -117.597450 0 944ft 0kts

Navigation Log

Ident Type
Flight plan parsing failed, navigation log unavailable